createdAt,value
2023-01-29T00:01:47.861Z,16.33
2023-01-29T00:04:52.616Z,15.70
2023-01-29T00:07:57.546Z,16.13
2023-01-29T00:11:07.196Z,16.63
2023-01-29T00:14:11.744Z,16.70
2023-01-29T00:17:16.700Z,16.33
2023-01-29T00:20:21.112Z,17.25
2023-01-29T00:23:26.120Z,16.85
2023-01-29T00:26:31.314Z,17.15
2023-01-29T00:29:35.859Z,17.85
2023-01-29T00:32:41.209Z,17.50
2023-01-29T00:35:45.650Z,20.17
2023-01-29T00:38:58.646Z,18.20
2023-01-29T00:42:21.895Z,18.90
2023-01-29T00:45:26.439Z,17.38
2023-01-29T00:48:31.259Z,18.77
2023-01-29T00:51:38.227Z,16.67
2023-01-29T00:54:42.801Z,18.27
2023-01-29T00:57:47.588Z,17.88
2023-01-29T01:00:52.333Z,18.08
2023-01-29T01:03:57.533Z,16.88
2023-01-29T01:07:02.207Z,15.80
2023-01-29T01:10:21.857Z,17.92
2023-01-29T01:13:26.517Z,18.75
2023-01-29T01:16:31.508Z,16.85
2023-01-29T01:19:36.376Z,17.83
2023-01-29T01:22:41.329Z,18.27
2023-01-29T01:25:46.678Z,21.67
2023-01-29T01:28:51.065Z,19.27
2023-01-29T01:31:55.693Z,19.02
2023-01-29T01:35:08.684Z,19.33
2023-01-29T01:38:22.113Z,19.55
2023-01-29T01:41:30.559Z,18.23
2023-01-29T01:45:08.078Z,17.58
2023-01-29T01:48:24.022Z,17.13
2023-01-29T01:51:30.613Z,21.60
2023-01-29T01:54:35.214Z,18.67
2023-01-29T01:57:42.345Z,18.45
2023-01-29T02:00:47.234Z,19.42
2023-01-29T02:04:39.527Z,17.92
2023-01-29T02:08:07.794Z,23.27
2023-01-29T02:11:13.159Z,20.10
2023-01-29T02:14:18.693Z,21.10
2023-01-29T02:17:24.112Z,22.05
2023-01-29T02:20:34.530Z,24.35
2023-01-29T02:24:01.138Z,19.45
2023-01-29T02:27:15.393Z,21.52
2023-01-29T02:30:43.292Z,20.20
2023-01-29T02:34:12.171Z,19.80
2023-01-29T02:37:16.892Z,21.75
2023-01-29T02:40:44.083Z,22.20
2023-01-29T02:44:01.799Z,20.02
2023-01-29T02:47:21.582Z,18.58
2023-01-29T02:51:04.979Z,22.23
2023-01-29T02:54:23.735Z,21.13
2023-01-29T02:57:36.225Z,22.60
2023-01-29T03:00:47.033Z,23.90
2023-01-29T03:03:56.113Z,21.52
2023-01-29T03:07:34.538Z,22.02
2023-01-29T03:11:02.144Z,22.33
2023-01-29T03:14:50.070Z,19.42
2023-01-29T03:18:12.809Z,22.98
2023-01-29T03:22:12.958Z,19.90
2023-01-29T03:25:39.518Z,23.00
2023-01-29T03:29:05.976Z,20.40
2023-01-29T03:32:14.405Z,19.80
2023-01-29T03:35:35.372Z,25.67
2023-01-29T03:38:41.041Z,20.42
2023-01-29T03:42:00.719Z,22.65
2023-01-29T03:45:33.248Z,21.83
2023-01-29T03:49:14.985Z,21.65
2023-01-29T03:52:35.640Z,22.88
2023-01-29T03:56:12.682Z,22.75
2023-01-29T03:59:38.888Z,24.55
2023-01-29T04:03:29.477Z,23.65
2023-01-29T04:06:38.905Z,23.13
2023-01-29T04:09:58.229Z,22.55
2023-01-29T04:13:09.144Z,23.25
2023-01-29T04:16:31.241Z,21.35
2023-01-29T04:19:54.566Z,25.42
2023-01-29T04:22:59.334Z,24.75
2023-01-29T04:26:08.024Z,22.02
2023-01-29T04:30:04.174Z,23.48
2023-01-29T04:33:42.343Z,22.67
2023-01-29T04:37:11.835Z,22.60
2023-01-29T04:40:28.444Z,20.75
2023-01-29T04:44:01.835Z,24.38
2023-01-29T04:47:47.108Z,20.05
2023-01-29T04:51:15.615Z,23.55
2023-01-29T04:54:38.460Z,21.70
2023-01-29T04:58:16.650Z,24.48
2023-01-29T05:01:25.774Z,21.40
2023-01-29T05:04:33.592Z,22.98
2023-01-29T05:07:40.576Z,27.20
2023-01-29T05:10:48.209Z,25.90
2023-01-29T05:13:53.450Z,28.10
2023-01-29T05:17:03.210Z,25.15
2023-01-29T05:20:10.822Z,26.15
2023-01-29T05:23:22.128Z,23.25
2023-01-29T05:26:46.247Z,25.65
2023-01-29T05:29:50.860Z,23.15
2023-01-29T05:32:55.951Z,22.55
2023-01-29T05:36:00.903Z,25.40
2023-01-29T05:39:05.450Z,23.48
2023-01-29T05:42:10.138Z,24.45
2023-01-29T05:45:14.958Z,26.55
2023-01-29T05:48:19.994Z,25.20
2023-01-29T05:51:24.772Z,24.85
2023-01-29T05:54:29.420Z,25.70
2023-01-29T05:57:33.732Z,23.33
2023-01-29T06:00:39.288Z,27.65
2023-01-29T06:03:44.613Z,28.33
2023-01-29T06:06:49.256Z,26.58
2023-01-29T06:09:54.226Z,25.52
2023-01-29T06:12:58.803Z,25.85
2023-01-29T06:16:08.488Z,27.08
2023-01-29T06:19:12.998Z,27.40
2023-01-29T06:22:17.967Z,29.92
2023-01-29T06:25:22.783Z,29.38
2023-01-29T06:28:27.788Z,28.05
2023-01-29T06:31:38.669Z,27.02
2023-01-29T06:34:43.886Z,25.90
2023-01-29T06:37:48.665Z,25.83
2023-01-29T06:40:54.818Z,31.08
2023-01-29T06:43:59.583Z,26.10
2023-01-29T06:47:04.324Z,29.35
2023-01-29T06:50:09.994Z,27.80
2023-01-29T06:53:15.080Z,26.65
2023-01-29T06:56:19.517Z,33.42
2023-01-29T06:59:24.290Z,31.27
2023-01-29T07:02:28.666Z,33.92
2023-01-29T07:05:33.037Z,30.98
2023-01-29T07:08:39.295Z,31.15
2023-01-29T07:11:43.776Z,28.40
2023-01-29T07:14:48.584Z,31.20
2023-01-29T07:18:01.596Z,26.92
2023-01-29T07:21:07.458Z,25.10
2023-01-29T07:24:12.410Z,30.40
2023-01-29T07:27:17.137Z,30.85
2023-01-29T07:30:22.149Z,29.88
2023-01-29T07:33:27.415Z,27.17
2023-01-29T07:36:32.076Z,26.40
2023-01-29T07:39:36.890Z,25.88
2023-01-29T07:42:43.957Z,26.10
2023-01-29T07:45:48.680Z,29.17
2023-01-29T07:48:53.341Z,29.35
2023-01-29T07:51:57.693Z,28.45
2023-01-29T07:55:02.198Z,26.35
2023-01-29T07:58:06.539Z,24.75
2023-01-29T08:01:11.564Z,24.85
2023-01-29T08:04:16.303Z,27.33
2023-01-29T08:07:20.722Z,30.17
2023-01-29T08:10:25.329Z,29.55
2023-01-29T08:13:30.570Z,25.70
2023-01-29T08:16:35.797Z,29.50
2023-01-29T08:19:40.446Z,26.55
2023-01-29T08:22:45.586Z,30.45
2023-01-29T08:25:50.389Z,30.88
2023-01-29T08:28:54.780Z,28.67
2023-01-29T08:31:59.561Z,29.80
2023-01-29T08:35:04.485Z,30.77
2023-01-29T08:38:10.422Z,33.67
2023-01-29T08:41:15.518Z,32.47
2023-01-29T08:44:20.100Z,31.65
2023-01-29T08:47:24.818Z,32.97
2023-01-29T08:50:30.755Z,33.88
2023-01-29T08:53:35.496Z,28.35
2023-01-29T08:56:40.185Z,28.92
2023-01-29T08:59:44.734Z,26.80
2023-01-29T09:02:49.627Z,32.67
2023-01-29T09:05:54.335Z,28.08
2023-01-29T09:08:59.066Z,28.63
2023-01-29T09:12:03.420Z,32.70
2023-01-29T09:15:09.125Z,29.75
2023-01-29T09:18:13.659Z,27.35
2023-01-29T09:21:17.929Z,32.97
2023-01-29T09:24:22.606Z,30.40
2023-01-29T09:27:27.056Z,26.70
2023-01-29T09:30:33.425Z,31.73
2023-01-29T09:33:38.077Z,26.83
2023-01-29T09:36:43.354Z,28.25
2023-01-29T09:39:47.805Z,28.67
2023-01-29T09:43:01.992Z,26.45
2023-01-29T09:46:38.385Z,24.58
2023-01-29T09:50:00.516Z,28.33
2023-01-29T09:53:25.394Z,26.95
2023-01-29T09:56:30.245Z,27.35
2023-01-29T09:59:34.904Z,27.23
2023-01-29T10:02:48.335Z,28.85
2023-01-29T10:05:59.917Z,25.80
2023-01-29T10:09:09.993Z,24.20
2023-01-29T10:12:34.286Z,24.38
2023-01-29T10:15:52.929Z,24.67
2023-01-29T10:19:17.250Z,27.52
2023-01-29T10:25:41.628Z,25.40
2023-01-29T10:28:50.741Z,27.58
2023-01-29T10:32:04.931Z,24.08
2023-01-29T10:35:30.199Z,26.90
2023-01-29T10:38:46.223Z,27.70
2023-01-29T10:42:19.789Z,23.02
2023-01-29T10:45:40.155Z,24.90
2023-01-29T10:49:16.634Z,25.13
2023-01-29T10:52:46.793Z,24.77
2023-01-29T10:56:23.230Z,23.08
2023-01-29T11:00:01.390Z,25.33
2023-01-29T11:03:29.139Z,27.98
2023-01-29T11:06:36.224Z,25.35
2023-01-29T11:10:14.743Z,23.40
2023-01-29T11:13:19.834Z,25.30
2023-01-29T11:16:25.959Z,24.35
2023-01-29T11:19:42.946Z,24.67
2023-01-29T11:22:55.747Z,28.23
2023-01-29T11:26:01.718Z,24.38
2023-01-29T11:29:44.499Z,22.77
2023-01-29T11:33:24.041Z,22.75
2023-01-29T11:36:38.503Z,21.88
2023-01-29T11:39:47.216Z,23.80
2023-01-29T11:42:53.826Z,21.92
2023-01-29T11:46:06.274Z,21.65
2023-01-29T11:49:26.898Z,23.17
2023-01-29T11:52:37.620Z,24.08
2023-01-29T11:55:50.792Z,25.92
2023-01-29T11:58:57.762Z,25.27
2023-01-29T12:02:28.296Z,24.67
2023-01-29T12:05:33.423Z,22.13
2023-01-29T12:08:40.070Z,25.33
2023-01-29T12:11:44.516Z,20.73
2023-01-29T12:15:16.111Z,22.42
2023-01-29T12:18:39.831Z,22.83
2023-01-29T12:21:55.538Z,28.67
2023-01-29T12:25:19.160Z,25.75
2023-01-29T12:28:47.907Z,26.42
2023-01-29T12:32:44.251Z,27.52
2023-01-29T12:35:57.494Z,25.63
2023-01-29T12:39:02.312Z,32.72
2023-01-29T12:42:22.628Z,29.23
2023-01-29T12:45:29.195Z,31.17
2023-01-29T12:48:39.369Z,28.52
2023-01-29T12:52:11.298Z,24.88
2023-01-29T12:55:24.986Z,27.58
2023-01-29T12:58:37.576Z,27.50
2023-01-29T13:01:56.387Z,28.42
2023-01-29T13:05:14.826Z,31.02
2023-01-29T13:08:32.493Z,31.45
2023-01-29T13:12:06.301Z,31.50
2023-01-29T13:15:38.175Z,29.73
2023-01-29T13:19:06.558Z,28.85
2023-01-29T13:22:28.052Z,30.98
2023-01-29T13:25:32.490Z,31.08
2023-01-29T13:28:37.219Z,27.30
2023-01-29T13:31:48.365Z,30.15
2023-01-29T13:34:57.263Z,26.52
2023-01-29T13:38:02.226Z,27.45
2023-01-29T13:41:08.846Z,31.02
2023-01-29T13:44:27.376Z,30.60
2023-01-29T13:47:37.519Z,32.75
2023-01-29T13:50:43.457Z,32.42
2023-01-29T13:54:03.739Z,35.83
2023-01-29T13:57:46.751Z,31.33
2023-01-29T14:00:51.376Z,30.13
2023-01-29T14:04:04.919Z,37.25
2023-01-29T14:07:49.924Z,35.53
2023-01-29T14:11:24.166Z,36.38
2023-01-29T14:14:59.687Z,33.08
2023-01-29T14:18:08.841Z,34.63
2023-01-29T14:21:16.738Z,32.83
2023-01-29T14:24:24.760Z,39.00
2023-01-29T14:27:30.413Z,34.08
2023-01-29T14:30:36.539Z,33.65
2023-01-29T14:33:43.435Z,39.08
2023-01-29T14:36:55.457Z,31.02
2023-01-29T14:40:19.351Z,34.10
2023-01-29T14:43:24.186Z,36.95
2023-01-29T14:46:35.372Z,36.85
2023-01-29T14:49:55.016Z,35.75
2023-01-29T14:53:23.287Z,43.25
2023-01-29T14:56:41.014Z,44.60
2023-01-29T15:00:13.702Z,52.95
2023-01-29T15:03:49.890Z,42.20
2023-01-29T15:07:09.487Z,43.20
2023-01-29T15:10:40.106Z,45.13
2023-01-29T15:14:12.010Z,43.67
2023-01-29T15:17:32.797Z,46.42
2023-01-29T15:20:40.833Z,46.60
2023-01-29T15:23:48.880Z,92.03
2023-01-29T15:26:54.387Z,80.20
2023-01-29T15:30:08.032Z,55.03
2023-01-29T15:33:14.734Z,44.42
2023-01-29T15:36:28.423Z,41.38
2023-01-29T15:39:43.812Z,39.93
2023-01-29T15:42:48.699Z,44.45
2023-01-29T15:46:01.646Z,40.60
2023-01-29T15:49:11.367Z,44.33
2023-01-29T15:52:22.669Z,50.85
2023-01-29T15:55:27.714Z,42.60
2023-01-29T15:58:32.825Z,36.10
2023-01-29T16:01:37.694Z,36.60
2023-01-29T16:04:43.084Z,40.55
2023-01-29T16:07:50.572Z,41.50
2023-01-29T16:11:02.637Z,39.17
2023-01-29T16:14:08.179Z,43.80
2023-01-29T16:17:36.662Z,39.13
2023-01-29T16:20:46.024Z,43.70
2023-01-29T16:24:14.018Z,40.20
2023-01-29T16:27:18.957Z,49.35
2023-01-29T16:30:27.869Z,42.63
2023-01-29T16:33:39.225Z,36.10
2023-01-29T16:36:48.296Z,42.60
2023-01-29T16:39:53.438Z,46.38
2023-01-29T16:43:28.411Z,37.85
2023-01-29T16:46:44.955Z,38.47
2023-01-29T16:49:56.744Z,32.75
2023-01-29T16:53:10.900Z,39.90
2023-01-29T16:56:15.827Z,40.15
2023-01-29T16:59:36.014Z,38.85
2023-01-29T17:02:40.933Z,40.63
2023-01-29T17:05:46.691Z,36.95
2023-01-29T17:08:52.153Z,44.05
2023-01-29T17:12:06.496Z,41.33
2023-01-29T17:15:35.371Z,39.38
2023-01-29T17:18:40.428Z,38.05
2023-01-29T17:21:45.373Z,37.90
2023-01-29T17:24:51.626Z,33.53
2023-01-29T17:27:56.573Z,37.72
2023-01-29T17:31:10.818Z,40.38
2023-01-29T17:34:17.143Z,36.05
2023-01-29T17:37:21.945Z,33.25
2023-01-29T17:40:46.389Z,37.53
2023-01-29T17:43:51.445Z,41.58
2023-01-29T17:46:56.929Z,39.38
2023-01-29T17:50:01.685Z,38.92
2023-01-29T17:53:06.464Z,35.65
2023-01-29T17:56:17.365Z,43.47
2023-01-29T17:59:33.996Z,39.72
2023-01-29T18:02:38.510Z,45.75
2023-01-29T18:05:45.738Z,42.35
2023-01-29T18:08:50.445Z,43.33
2023-01-29T18:11:55.245Z,35.58
2023-01-29T18:14:59.927Z,33.03
2023-01-29T18:18:06.559Z,35.65
2023-01-29T18:21:11.425Z,37.63
2023-01-29T18:24:17.343Z,44.33
2023-01-29T18:27:21.976Z,55.65
2023-01-29T18:30:27.777Z,73.18
2023-01-29T18:33:56.836Z,52.55
2023-01-29T18:37:01.733Z,42.28
2023-01-29T18:40:08.349Z,38.17
2023-01-29T18:43:15.052Z,55.88
2023-01-29T18:46:20.447Z,44.30
2023-01-29T18:49:25.154Z,39.97
2023-01-29T18:52:29.852Z,41.10
2023-01-29T18:55:34.935Z,43.60
2023-01-29T18:58:40.244Z,42.60
2023-01-29T19:01:46.899Z,40.17
2023-01-29T19:04:51.781Z,41.88
2023-01-29T19:07:56.739Z,41.92
2023-01-29T19:11:04.058Z,40.40
2023-01-29T19:14:08.652Z,36.22
2023-01-29T19:17:14.470Z,36.00
2023-01-29T19:20:19.857Z,40.42
2023-01-29T19:23:24.734Z,34.30
2023-01-29T19:26:33.947Z,37.70
2023-01-29T19:29:38.653Z,35.03
2023-01-29T19:32:43.632Z,35.50
2023-01-29T19:35:48.416Z,39.55
2023-01-29T19:38:52.946Z,35.33
2023-01-29T19:41:57.487Z,42.50
2023-01-29T19:45:02.034Z,35.95
2023-01-29T19:48:06.868Z,48.08
2023-01-29T19:51:13.023Z,42.45
2023-01-29T19:54:17.577Z,37.17
2023-01-29T19:57:22.597Z,33.72
2023-01-29T20:00:27.260Z,41.72
2023-01-29T20:03:32.603Z,38.53
2023-01-29T20:06:37.471Z,33.28
2023-01-29T20:09:42.306Z,37.58
2023-01-29T20:12:47.880Z,34.58
2023-01-29T20:15:53.268Z,40.20
2023-01-29T20:19:14.216Z,36.72
2023-01-29T20:22:19.750Z,35.25
2023-01-29T20:25:24.667Z,41.03
2023-01-29T20:28:29.633Z,36.83
2023-01-29T20:31:34.315Z,36.80
2023-01-29T20:34:39.121Z,35.80
2023-01-29T20:37:43.881Z,33.00
2023-01-29T20:40:49.566Z,38.63
2023-01-29T20:43:54.353Z,34.50
2023-01-29T20:47:01.714Z,40.03
2023-01-29T20:50:08.711Z,39.70
2023-01-29T20:53:13.337Z,44.50
2023-01-29T20:56:18.572Z,34.08
2023-01-29T20:59:36.394Z,37.47
2023-01-29T21:02:41.099Z,35.33
2023-01-29T21:05:45.839Z,35.92
2023-01-29T21:08:50.230Z,38.03
2023-01-29T21:11:55.656Z,39.38
2023-01-29T21:15:00.416Z,37.20
2023-01-29T21:18:06.961Z,41.35
2023-01-29T21:21:11.494Z,43.92
2023-01-29T21:24:18.848Z,41.70
2023-01-29T21:27:25.613Z,40.60
2023-01-29T21:30:30.509Z,43.25
2023-01-29T21:33:35.662Z,38.70
2023-01-29T21:36:40.247Z,42.28
2023-01-29T21:39:45.897Z,39.00
2023-01-29T21:43:08.692Z,39.92
2023-01-29T21:46:13.524Z,43.08
2023-01-29T21:49:18.159Z,37.97
2023-01-29T21:52:23.227Z,43.78
2023-01-29T21:55:28.178Z,38.65
2023-01-29T21:58:33.295Z,48.05
2023-01-29T22:01:38.893Z,41.38
2023-01-29T22:04:43.644Z,46.65
2023-01-29T22:07:49.440Z,50.63
2023-01-29T22:10:53.909Z,50.28
2023-01-29T22:13:58.764Z,48.00
2023-01-29T22:17:04.052Z,44.45
2023-01-29T22:20:13.886Z,41.10
2023-01-29T22:23:18.567Z,47.70
2023-01-29T22:26:23.560Z,46.67
2023-01-29T22:29:28.262Z,42.35
2023-01-29T22:32:33.427Z,49.30
2023-01-29T22:35:38.302Z,46.92
2023-01-29T22:38:43.435Z,46.05
2023-01-29T22:41:48.158Z,46.25
2023-01-29T22:44:52.905Z,49.03
2023-01-29T22:47:57.257Z,55.45
2023-01-29T22:51:11.080Z,63.53
2023-01-29T22:54:15.919Z,64.55
2023-01-29T22:57:20.731Z,47.75
2023-01-29T23:00:26.101Z,46.33
2023-01-29T23:03:30.831Z,48.47
2023-01-29T23:06:54.690Z,51.35
2023-01-29T23:09:59.370Z,44.38
2023-01-29T23:13:04.041Z,48.22
2023-01-29T23:16:08.966Z,50.33
2023-01-29T23:19:13.864Z,56.42
2023-01-29T23:22:18.510Z,50.90
2023-01-29T23:25:43.160Z,45.97
2023-01-29T23:31:52.602Z,44.63
2023-01-29T23:34:57.491Z,44.85
2023-01-29T23:38:02.520Z,44.10
2023-01-29T23:41:07.319Z,48.67
2023-01-29T23:44:12.159Z,51.08
2023-01-29T23:47:16.886Z,44.72
2023-01-29T23:50:21.604Z,51.15
2023-01-29T23:53:26.468Z,53.33
2023-01-29T23:56:31.005Z,51.45
2023-01-29T23:59:35.676Z,51.78
